Bora Bora, Bora Bora Airport (NTTB)

NameBora Bora Airport
CityBora Bora
CountryFrench Polynesia
ICAONTTB
IATABOB
Altitude3 m
CoordinatesGoogle Map
Live Air TrafficLiveATC.net
METARNTTB 121900Z AUTO 04005KT 9999 NCD 30/23 Q1009
2017-01-12 19:00:00 Wind: North-Northeast (40°) 2.57 m/s - Visibility: > 10000 m - Temperature: 30 °C - Dew point: 23 °C - Humidity: 66.1% - Pressure: 1009 hPa

Sorry, no flights used the airport in this database.